Lenorah, Texas
Current Conditions -  °F | °C
As of 8:35 AM on Sunday 23 Nov 2014 (Local Time) from KBPG Reporting Station
Clear Clear  
Wind Chill: 54°   Ceiling: Unl
Heat Index: 54°   Visibility: 10mi
Dew Point: 35°   Wind: 8mph
Humidity: 49%   Direction: 230°SW
Pressure: 29.69"   Gusts: NA
Location:  32.3°N, 101.88°W
Report Text: KBPG 231435Z AUTO 23007KT 10SM CLR 12/02 A2969 RMK AO2 T01200015
Loading
Personal Weather Stations






























Interactive Weather Map New forecast layout! Learn more

10-Day Weather Forecast

Advertisements
Track Severe Weather on mobile